createdAt,value
2022-10-20T00:02:52.289Z,64.16
2022-10-20T00:08:23.698Z,63.48
2022-10-20T00:13:56.273Z,63.30
2022-10-20T00:19:28.740Z,63.35
2022-10-20T00:24:59.978Z,63.79
2022-10-20T00:30:30.894Z,63.38
2022-10-20T00:36:04.538Z,63.27
2022-10-20T00:41:35.692Z,64.16
2022-10-20T00:47:13.692Z,63.73
2022-10-20T00:52:46.824Z,62.62
2022-10-20T00:58:19.121Z,63.46
2022-10-20T01:03:51.792Z,63.67
2022-10-20T01:09:22.981Z,63.56
2022-10-20T01:14:54.074Z,63.04
2022-10-20T01:20:41.848Z,63.05
2022-10-20T01:26:41.565Z,63.56
2022-10-20T01:32:22.864Z,62.50
2022-10-20T01:37:59.238Z,63.09
2022-10-20T01:43:34.150Z,62.85
2022-10-20T01:49:05.887Z,62.84
2022-10-20T01:54:37.102Z,62.55
2022-10-20T02:00:12.204Z,62.74
2022-10-20T02:06:05.229Z,62.57
2022-10-20T02:11:54.972Z,62.90
2022-10-20T02:17:26.655Z,62.03
2022-10-20T02:22:59.268Z,62.01
2022-10-20T02:28:30.246Z,62.18
2022-10-20T02:34:02.435Z,63.23
2022-10-20T02:39:33.700Z,62.52
2022-10-20T02:45:05.463Z,62.67
2022-10-20T02:50:36.858Z,62.81
2022-10-20T02:56:07.981Z,62.32
2022-10-20T03:01:39.274Z,62.88
2022-10-20T03:07:11.000Z,63.22
2022-10-20T03:12:42.149Z,62.29
2022-10-20T03:18:13.413Z,62.42
2022-10-20T03:23:44.451Z,62.22
2022-10-20T03:29:15.433Z,62.50
2022-10-20T03:34:46.370Z,62.49
2022-10-20T03:40:18.043Z,62.86
2022-10-20T03:45:48.947Z,62.88
2022-10-20T03:51:20.178Z,61.61
2022-10-20T03:56:51.346Z,61.24
2022-10-20T04:02:38.630Z,62.81
2022-10-20T04:08:10.107Z,62.61
2022-10-20T04:13:41.236Z,63.06
2022-10-20T04:19:12.133Z,62.28
2022-10-20T04:24:43.360Z,62.05
2022-10-20T04:30:14.636Z,62.85
2022-10-20T04:35:45.679Z,62.39
2022-10-20T04:41:16.918Z,62.86
2022-10-20T04:46:48.351Z,61.40
2022-10-20T04:52:20.983Z,63.10
2022-10-20T04:57:52.214Z,62.13
2022-10-20T05:03:23.188Z,62.73
2022-10-20T05:09:00.389Z,61.75
2022-10-20T05:14:31.923Z,62.45
2022-10-20T05:20:02.908Z,63.19
2022-10-20T05:25:37.241Z,61.89
2022-10-20T05:31:09.735Z,62.37
2022-10-20T05:36:40.875Z,61.43
2022-10-20T05:42:12.132Z,62.08
2022-10-20T05:47:44.253Z,61.93
2022-10-20T05:53:15.690Z,61.42
2022-10-20T05:58:47.969Z,62.55
2022-10-20T06:04:24.075Z,62.06
2022-10-20T06:09:55.386Z,61.81
2022-10-20T06:15:26.771Z,61.83
2022-10-20T06:21:06.891Z,62.25
2022-10-20T06:26:39.113Z,61.52
2022-10-20T06:32:10.334Z,61.75
2022-10-20T06:37:41.488Z,62.41
2022-10-20T06:43:12.362Z,62.27
2022-10-20T06:48:43.540Z,61.38
2022-10-20T06:54:14.900Z,62.02
2022-10-20T06:59:48.214Z,62.09
2022-10-20T07:05:20.252Z,62.06
2022-10-20T07:11:07.488Z,61.91
2022-10-20T07:16:38.554Z,61.58
2022-10-20T07:22:09.467Z,62.23
2022-10-20T07:27:40.460Z,63.16
2022-10-20T07:33:11.300Z,62.87
2022-10-20T07:38:42.658Z,62.46
2022-10-20T07:44:13.983Z,62.43
2022-10-20T07:49:45.401Z,62.44
2022-10-20T07:55:33.481Z,62.72
2022-10-20T08:01:07.884Z,63.09
2022-10-20T08:06:39.610Z,63.32
2022-10-20T08:12:11.041Z,63.36
2022-10-20T08:17:42.104Z,63.46
2022-10-20T08:23:13.931Z,63.27
2022-10-20T08:28:44.854Z,63.39
2022-10-20T08:34:15.945Z,63.54
2022-10-20T08:39:46.904Z,63.92
2022-10-20T08:45:23.591Z,63.38
2022-10-20T08:50:55.523Z,63.60
2022-10-20T08:56:29.850Z,63.54
2022-10-20T09:02:01.925Z,63.84
2022-10-20T09:07:36.293Z,63.98
2022-10-20T09:13:29.247Z,63.34
2022-10-20T09:19:01.232Z,63.47
2022-10-20T09:24:32.645Z,63.54
2022-10-20T09:30:19.313Z,63.74
2022-10-20T09:35:51.265Z,63.50
2022-10-20T09:41:26.164Z,63.54
2022-10-20T09:46:57.467Z,63.12
2022-10-20T09:52:36.097Z,63.08
2022-10-20T09:58:17.174Z,63.41
2022-10-20T10:03:51.990Z,62.97
2022-10-20T10:09:35.365Z,62.91
2022-10-20T10:15:24.309Z,63.38
2022-10-20T10:21:04.645Z,63.53
2022-10-20T10:26:46.062Z,63.40
2022-10-20T10:32:21.228Z,63.65
2022-10-20T10:37:53.132Z,63.62
2022-10-20T10:44:04.020Z,63.62
2022-10-20T10:49:51.797Z,63.35
2022-10-20T10:55:47.784Z,63.85
2022-10-20T11:01:44.586Z,63.50
2022-10-20T11:07:37.303Z,63.25
2022-10-20T11:13:33.232Z,63.33
2022-10-20T11:19:16.366Z,63.61
2022-10-20T11:25:28.474Z,63.61
2022-10-20T11:30:59.817Z,63.63
2022-10-20T11:36:35.632Z,63.93
2022-10-20T11:42:43.545Z,63.52
2022-10-20T11:48:42.614Z,63.32
2022-10-20T11:54:14.442Z,63.44
2022-10-20T11:59:46.194Z,63.47
2022-10-20T12:05:54.483Z,63.71
2022-10-20T12:11:25.537Z,63.83
2022-10-20T12:16:58.992Z,63.97
2022-10-20T12:22:29.931Z,64.15
2022-10-20T12:28:23.043Z,63.90
2022-10-20T12:33:54.172Z,64.01
2022-10-20T12:39:31.651Z,63.94
2022-10-20T12:45:07.371Z,64.13
2022-10-20T12:50:43.741Z,64.33
2022-10-20T12:56:20.023Z,64.34
2022-10-20T13:02:09.143Z,64.13
2022-10-20T13:07:46.312Z,63.69
2022-10-20T13:13:20.379Z,63.79
2022-10-20T13:18:52.777Z,63.80
2022-10-20T13:24:32.112Z,63.52
2022-10-20T13:30:08.126Z,63.61
2022-10-20T13:36:03.541Z,63.65
2022-10-20T13:41:58.278Z,63.80
2022-10-20T13:47:55.880Z,63.87
2022-10-20T13:53:31.602Z,63.69
2022-10-20T13:59:07.143Z,64.12
2022-10-20T14:04:39.100Z,63.64
2022-10-20T14:10:39.436Z,63.88
2022-10-20T14:16:23.088Z,63.93
2022-10-20T14:21:57.240Z,63.64
2022-10-20T14:27:33.373Z,63.43
2022-10-20T14:33:05.596Z,63.32
2022-10-20T14:38:38.021Z,63.69
2022-10-20T14:44:31.087Z,63.79
2022-10-20T14:50:02.773Z,63.53
2022-10-20T14:55:37.257Z,63.43
2022-10-20T15:01:14.542Z,63.43
2022-10-20T15:06:45.647Z,63.44
2022-10-20T15:12:22.491Z,63.56
2022-10-20T15:18:18.562Z,63.54
2022-10-20T15:23:50.157Z,63.42
2022-10-20T15:29:21.499Z,63.85
2022-10-20T15:34:52.487Z,63.69
2022-10-20T15:40:23.343Z,63.64
2022-10-20T15:45:55.467Z,64.05
2022-10-20T15:51:29.635Z,64.23
2022-10-20T15:57:00.662Z,64.28
2022-10-20T16:02:31.566Z,63.88
2022-10-20T16:08:02.565Z,63.89
2022-10-20T16:13:34.192Z,64.06
2022-10-20T16:19:05.796Z,63.93
2022-10-20T16:24:36.804Z,63.89
2022-10-20T16:30:08.689Z,63.67
2022-10-20T16:35:43.777Z,63.67
2022-10-20T16:41:15.904Z,63.83
2022-10-20T16:46:47.445Z,63.25
2022-10-20T16:52:18.783Z,62.94
2022-10-20T16:57:50.098Z,63.19
2022-10-20T17:03:21.102Z,62.67
2022-10-20T17:08:53.185Z,63.00
2022-10-20T17:14:24.374Z,62.55
2022-10-20T17:19:55.382Z,62.80
2022-10-20T17:25:26.969Z,62.51
2022-10-20T17:30:59.189Z,62.37
2022-10-20T17:36:31.269Z,62.80
2022-10-20T17:42:02.339Z,62.80
2022-10-20T17:47:33.303Z,62.61
2022-10-20T17:53:04.838Z,63.01
2022-10-20T17:58:36.576Z,62.82
2022-10-20T18:04:11.022Z,62.86
2022-10-20T18:09:41.999Z,63.26
2022-10-20T18:15:13.481Z,62.64
2022-10-20T18:20:55.387Z,63.04
2022-10-20T18:26:26.732Z,62.80
2022-10-20T18:31:58.313Z,62.96
2022-10-20T18:37:29.329Z,63.18
2022-10-20T18:43:01.025Z,63.26
2022-10-20T18:48:32.991Z,63.22
2022-10-20T18:54:05.218Z,63.46
2022-10-20T18:59:36.308Z,63.43
2022-10-20T19:05:07.961Z,63.42
2022-10-20T19:10:43.146Z,63.77
2022-10-20T19:16:17.485Z,63.61
2022-10-20T19:21:48.557Z,63.64
2022-10-20T19:27:26.663Z,63.75
2022-10-20T19:32:58.940Z,63.62
2022-10-20T19:38:30.123Z,63.28
2022-10-20T19:44:02.485Z,63.40
2022-10-20T19:49:33.826Z,63.37
2022-10-20T19:55:04.962Z,63.62
2022-10-20T20:00:36.010Z,63.04
2022-10-20T20:06:16.653Z,63.78
2022-10-20T20:11:47.833Z,63.56
2022-10-20T20:17:18.928Z,64.10
2022-10-20T20:22:50.121Z,63.95
2022-10-20T20:28:21.316Z,64.28
2022-10-20T20:33:53.376Z,64.41
2022-10-20T20:39:24.424Z,64.09
2022-10-20T20:44:55.712Z,63.60
2022-10-20T20:50:26.965Z,64.26
2022-10-20T20:56:00.365Z,63.92
2022-10-20T21:01:32.500Z,64.07
2022-10-20T21:07:03.857Z,64.50
2022-10-20T21:12:35.569Z,64.57
2022-10-20T21:18:06.539Z,64.58
2022-10-20T21:23:38.849Z,64.70
2022-10-20T21:29:10.632Z,63.92
2022-10-20T21:34:41.709Z,64.76
2022-10-20T21:40:12.859Z,64.18
2022-10-20T21:45:44.087Z,64.59
2022-10-20T21:51:24.259Z,64.56
2022-10-20T21:56:56.066Z,64.53
2022-10-20T22:02:26.773Z,64.74
2022-10-20T22:07:57.634Z,64.64
2022-10-20T22:13:28.506Z,64.14
2022-10-20T22:19:02.442Z,64.66
2022-10-20T22:24:35.797Z,64.72
2022-10-20T22:30:08.067Z,64.85
2022-10-20T22:35:38.975Z,64.14
2022-10-20T22:41:11.007Z,64.28
2022-10-20T22:46:42.145Z,64.31
2022-10-20T22:52:12.997Z,64.78
2022-10-20T22:57:48.364Z,64.54
2022-10-20T23:03:19.851Z,64.82
2022-10-20T23:08:53.210Z,64.75
2022-10-20T23:14:24.654Z,64.33
2022-10-20T23:19:56.325Z,64.29
2022-10-20T23:25:27.227Z,64.50
2022-10-20T23:31:12.694Z,64.29
2022-10-20T23:36:43.900Z,64.51
2022-10-20T23:42:14.892Z,64.38
2022-10-20T23:47:46.073Z,64.70
2022-10-20T23:53:17.567Z,64.56
2022-10-20T23:58:48.495Z,64.60
